Time;durP1;ratioP1;P1;durP2;ratioP2;P2;SDS_P1;SDS_P2;PMS_P1;PMS_P2;Temp;Humidity;BMP_temperature;BMP_pressure;BME280_temperature;BME280_humidity;BME280_pressure;Samples;Min_cycle;Max_cycle;Signal;HPM_P1;HPM_P2
2021/06/08 00:02:22;;;;;;;19.73;12.00;;;;;;;;;;6197210;23;20634;-88
2021/06/08 00:05:27;;;;;;;21.95;12.68;;;;;;;;;;6196720;23;20729;-90
2021/06/08 00:08:32;;;;;;;19.70;12.48;;;;;;;;;;6198069;23;20210;-89
2021/06/08 00:11:37;;;;;;;21.10;12.90;;;;;;;;;;6197162;23;20215;-88
2021/06/08 00:14:42;;;;;;;18.30;12.02;;;;;;;;;;6198872;23;20654;-90
2021/06/08 00:17:48;;;;;;;20.45;12.05;;;;;;;;;;6198000;23;20219;-88
2021/06/08 00:20:53;;;;;;;19.15;12.75;;;;;;;;;;6197321;23;20219;-89
2021/06/08 00:23:57;;;;;;;19.17;13.00;;;;;;;;;;6196898;23;20607;-89
2021/06/08 00:27:02;;;;;;;21.02;13.52;;;;;;;;;;6198139;23;20175;-89
2021/06/08 00:30:07;;;;;;;19.70;12.32;;;;;;;;;;6197057;23;20175;-89
2021/06/08 00:33:13;;;;;;;16.50;11.85;;;;;;;;;;6195156;23;20200;-89
2021/06/08 00:36:18;;;;;;;19.27;12.77;;;;;;;;;;6196165;23;20163;-88
2021/06/08 00:39:22;;;;;;;19.27;13.30;;;;;;;;;;6196272;23;20195;-89
2021/06/08 00:42:30;;;;;;;17.80;12.63;;;;;;;;;;6195387;23;20203;-89
2021/06/08 00:45:35;;;;;;;21.15;12.85;;;;;;;;;;6195535;23;20200;-91
2021/06/08 00:48:43;;;;;;;16.63;12.50;;;;;;;;;;6195925;23;20216;-89
2021/06/08 00:51:47;;;;;;;18.27;12.35;;;;;;;;;;6196370;23;20198;-87
2021/06/08 00:54:52;;;;;;;19.75;12.27;;;;;;;;;;6196794;23;20167;-89
2021/06/08 00:57:57;;;;;;;20.52;12.32;;;;;;;;;;6197432;23;20172;-88
2021/06/08 01:01:01;;;;;;;18.20;11.85;;;;;;;;;;6195971;23;20172;-91
2021/06/08 01:04:07;;;;;;;18.80;12.02;;;;;;;;;;6197721;23;20186;-90
2021/06/08 01:07:12;;;;;;;18.73;11.70;;;;;;;;;;6198655;23;20596;-90
2021/06/08 01:10:16;;;;;;;18.73;12.10;;;;;;;;;;6196866;23;20626;-88
2021/06/08 01:13:21;;;;;;;20.27;12.80;;;;;;;;;;6197597;23;20175;-90
2021/06/08 01:16:26;;;;;;;20.30;12.77;;;;;;;;;;6195206;23;20627;-90
2021/06/08 01:19:32;;;;;;;19.70;12.68;;;;;;;;;;6196538;23;20155;-88
2021/06/08 01:22:38;;;;;;;22.30;12.23;;;;;;;;;;6196459;23;20261;-89
2021/06/08 01:25:42;;;;;;;20.58;13.07;;;;;;;;;;6196890;23;20184;-90
2021/06/08 01:28:47;;;;;;;21.38;12.15;;;;;;;;;;6196675;23;20592;-90
2021/06/08 01:31:57;;;;;;;19.02;12.73;;;;;;;;;;6194176;23;20263;-89
2021/06/08 01:35:02;;;;;;;15.93;11.60;;;;;;;;;;6198496;23;20191;-90
2021/06/08 01:38:09;;;;;;;19.42;11.88;;;;;;;;;;6198156;23;20227;-90
2021/06/08 01:41:14;;;;;;;17.73;12.18;;;;;;;;;;6197503;23;20219;-89
2021/06/08 01:44:19;;;;;;;21.80;12.88;;;;;;;;;;6198443;23;20251;-89
2021/06/08 01:47:24;;;;;;;25.23;12.55;;;;;;;;;;6198497;23;20241;-88
2021/06/08 01:50:28;;;;;;;20.83;12.57;;;;;;;;;;6198855;23;20216;-90
2021/06/08 01:53:37;;;;;;;18.92;11.63;;;;;;;;;;6197228;23;20292;-88
2021/06/08 01:56:45;;;;;;;17.33;12.38;;;;;;;;;;6198272;23;20171;-90
2021/06/08 01:59:55;;;;;;;17.80;11.52;;;;;;;;;;6198107;23;20171;-90
2021/06/08 02:03:05;;;;;;;18.27;11.23;;;;;;;;;;6196959;23;20196;-90
2021/06/08 02:06:14;;;;;;;17.30;11.07;;;;;;;;;;6198311;23;20169;-90
2021/06/08 02:09:22;;;;;;;18.48;10.82;;;;;;;;;;6196289;23;20245;-89
2021/06/08 02:12:28;;;;;;;16.35;10.75;;;;;;;;;;6197389;23;20171;-90
2021/06/08 02:15:34;;;;;;;18.85;11.13;;;;;;;;;;6196246;23;20547;-89
2021/06/08 02:18:39;;;;;;;15.45;10.68;;;;;;;;;;6197052;23;20459;-89
2021/06/08 02:21:46;;;;;;;20.30;10.75;;;;;;;;;;6197311;23;20255;-89
2021/06/08 02:24:53;;;;;;;15.60;10.20;;;;;;;;;;6196173;23;20188;-89
2021/06/08 02:27:58;;;;;;;16.67;10.30;;;;;;;;;;6197764;23;20215;-89
2021/06/08 02:31:04;;;;;;;18.50;10.90;;;;;;;;;;6197701;23;20179;-89
2021/06/08 02:34:09;;;;;;;16.15;10.88;;;;;;;;;;6196495;23;20175;-90
2021/06/08 02:37:14;;;;;;;15.98;10.43;;;;;;;;;;6197773;23;20187;-88
2021/06/08 02:40:21;;;;;;;17.98;11.02;;;;;;;;;;6196885;23;20168;-89
2021/06/08 02:43:26;;;;;;;16.52;11.30;;;;;;;;;;6196016;23;20203;-89
2021/06/08 02:46:31;;;;;;;15.55;10.80;;;;;;;;;;6197215;23;20155;-88
2021/06/08 02:49:35;;;;;;;16.58;10.77;;;;;;;;;;6197020;23;20183;-89
2021/06/08 02:52:40;;;;;;;17.63;11.55;;;;;;;;;;6196894;23;20499;-89
2021/06/08 02:55:48;;;;;;;16.80;11.75;;;;;;;;;;6195641;23;20219;-90
2021/06/08 02:58:53;;;;;;;23.73;11.55;;;;;;;;;;6195074;23;20175;-90
2021/06/08 03:01:59;;;;;;;18.20;11.20;;;;;;;;;;6195811;23;20199;-90
2021/06/08 03:05:06;;;;;;;19.95;12.02;;;;;;;;;;6197739;23;20171;-89
2021/06/08 03:08:13;;;;;;;19.20;12.20;;;;;;;;;;6196242;23;20192;-89
2021/06/08 03:11:22;;;;;;;18.85;12.30;;;;;;;;;;6195302;23;20192;-89
2021/06/08 03:14:27;;;;;;;23.35;12.32;;;;;;;;;;6195322;23;20214;-90
2021/06/08 03:17:32;;;;;;;23.25;11.63;;;;;;;;;;6194286;23;20159;-89
2021/06/08 03:20:39;;;;;;;21.25;11.90;;;;;;;;;;6195634;23;20182;-89
2021/06/08 03:23:48;;;;;;;21.02;13.10;;;;;;;;;;6177220;23;20302;-89
2021/06/08 03:26:55;;;;;;;19.30;13.02;;;;;;;;;;6178773;23;20151;-88
2021/06/08 03:30:00;;;;;;;20.20;13.60;;;;;;;;;;6196187;23;20176;-88
2021/06/08 03:33:05;;;;;;;20.80;13.00;;;;;;;;;;6179080;23;20176;-89
2021/06/08 03:36:10;;;;;;;21.08;12.55;;;;;;;;;;6179366;23;20200;-89
2021/06/08 03:39:15;;;;;;;19.17;12.20;;;;;;;;;;6178051;23;20168;-90
2021/06/08 03:42:21;;;;;;;19.85;11.98;;;;;;;;;;6177987;23;20196;-89
2021/06/08 03:45:26;;;;;;;18.27;12.18;;;;;;;;;;6179710;23;20191;-90
2021/06/08 03:48:31;;;;;;;16.25;11.90;;;;;;;;;;6181103;23;20168;-89
2021/06/08 03:51:37;;;;;;;17.95;12.35;;;;;;;;;;6178930;23;20675;-89
2021/06/08 03:54:42;;;;;;;16.27;11.57;;;;;;;;;;6180486;23;20196;-90
2021/06/08 03:57:52;;;;;;;18.95;11.15;;;;;;;;;;6179651;23;20215;-90
2021/06/08 04:01:01;;;;;;;14.27;10.40;;;;;;;;;;6178261;23;20180;-89
2021/06/08 04:04:06;;;;;;;18.52;10.65;;;;;;;;;;6179489;23;20208;-89
2021/06/08 04:07:12;;;;;;;18.63;11.15;;;;;;;;;;6178217;23;20168;-88
2021/06/08 04:10:18;;;;;;;16.90;11.35;;;;;;;;;;6194659;23;20616;-88
2021/06/08 04:13:24;;;;;;;16.33;11.07;;;;;;;;;;6176706;23;20163;-88
2021/06/08 04:16:28;;;;;;;15.00;10.63;;;;;;;;;;6179234;23;20159;-90
2021/06/08 04:19:33;;;;;;;17.90;11.15;;;;;;;;;;6177527;23;20163;-89
2021/06/08 04:22:40;;;;;;;17.27;11.02;;;;;;;;;;6177642;23;20218;-89
2021/06/08 04:25:45;;;;;;;17.50;11.02;;;;;;;;;;6177195;23;20216;-88
2021/06/08 04:28:51;;;;;;;16.65;11.30;;;;;;;;;;6176866;23;20187;-89
2021/06/08 04:31:56;;;;;;;17.60;11.68;;;;;;;;;;6177827;23;20231;-89
2021/06/08 04:35:01;;;;;;;20.15;12.25;;;;;;;;;;6177578;23;20184;-89
2021/06/08 04:38:06;;;;;;;16.45;11.27;;;;;;;;;;6179596;23;20221;-89
2021/06/08 04:41:10;;;;;;;17.50;11.15;;;;;;;;;;6178588;23;20264;-89
2021/06/08 04:44:21;;;;;;;21.05;11.50;;;;;;;;;;6178028;23;20164;-89
2021/06/08 04:47:26;;;;;;;14.50;11.00;;;;;;;;;;6178827;23;20259;-90
2021/06/08 04:50:30;;;;;;;16.02;11.35;;;;;;;;;;6178660;23;20172;-89
2021/06/08 04:53:35;;;;;;;17.67;10.73;;;;;;;;;;6195866;23;20164;-89
2021/06/08 04:56:39;;;;;;;17.20;10.27;;;;;;;;;;6179407;23;20176;-89
2021/06/08 04:59:50;;;;;;;15.77;10.20;;;;;;;;;;6179132;23;20183;-90
2021/06/08 05:02:56;;;;;;;15.38;9.68;;;;;;;;;;6176135;23;20246;-89
2021/06/08 05:06:02;;;;;;;18.90;10.77;;;;;;;;;;6196398;23;20615;-90
2021/06/08 05:09:08;;;;;;;15.40;10.50;;;;;;;;;;6178029;23;20179;-89
2021/06/08 05:12:20;;;;;;;18.08;11.23;;;;;;;;;;6181079;23;20231;-90
2021/06/08 05:15:31;;;;;;;15.77;10.85;;;;;;;;;;6187006;23;20199;-88
2021/06/08 05:18:37;;;;;;;17.38;11.68;;;;;;;;;;6184346;23;20251;-89
2021/06/08 05:21:43;;;;;;;18.88;11.48;;;;;;;;;;6199918;23;20260;-91
2021/06/08 05:24:49;;;;;;;18.63;11.45;;;;;;;;;;6203136;23;20187;-88
2021/06/08 05:27:54;;;;;;;17.30;12.23;;;;;;;;;;6203782;23;20167;-89
2021/06/08 05:31:01;;;;;;;21.15;12.30;;;;;;;;;;6201752;23;20176;-89
2021/06/08 05:34:08;;;;;;;20.08;12.68;;;;;;;;;;6207661;23;20188;-90
2021/06/08 05:37:14;;;;;;;21.17;13.52;;;;;;;;;;6202821;23;20213;-91
2021/06/08 10:07:27;;;;;;;10.60;3.97;;;;;;;;;;6188966;23;20266;-92
2021/06/08 10:10:40;;;;;;;8.05;4.10;;;;;;;;;;6202505;23;20199;-91
2021/06/08 10:13:45;;;;;;;4.78;3.72;;;;;;;;;;6201813;23;20207;-91
2021/06/08 10:17:00;;;;;;;4.63;3.30;;;;;;;;;;6200536;23;20158;-92
2021/06/08 10:20:18;;;;;;;4.47;3.08;;;;;;;;;;6201673;23;20598;-92
2021/06/08 10:23:25;;;;;;;6.88;3.38;;;;;;;;;;6202180;23;20211;-93
2021/06/08 10:26:33;;;;;;;5.18;3.13;;;;;;;;;;6183131;23;20151;-93
2021/06/08 10:29:38;;;;;;;4.47;3.10;;;;;;;;;;6201115;23;20196;-92
2021/06/08 10:32:43;;;;;;;7.80;2.92;;;;;;;;;;6199104;23;20167;-92
2021/06/08 10:35:48;;;;;;;5.50;3.05;;;;;;;;;;6201234;23;20247;-91
2021/06/08 10:38:54;;;;;;;7.68;2.95;;;;;;;;;;6199904;23;20163;-91
2021/06/08 10:41:59;;;;;;;5.78;2.88;;;;;;;;;;6199112;23;20168;-90
2021/06/08 10:45:08;;;;;;;6.32;3.00;;;;;;;;;;6197707;23;20179;-89
2021/06/08 10:48:16;;;;;;;7.00;3.13;;;;;;;;;;6196673;23;20172;-90
2021/06/08 10:51:22;;;;;;;10.52;4.30;;;;;;;;;;6198943;23;20561;-91
2021/06/08 10:54:28;;;;;;;5.75;3.17;;;;;;;;;;6199904;23;20168;-92
2021/06/08 10:57:43;;;;;;;7.70;3.58;;;;;;;;;;6198748;23;20204;-91
2021/06/08 11:00:52;;;;;;;6.40;3.10;;;;;;;;;;6200958;23;20163;-92
2021/06/08 11:03:58;;;;;;;7.18;3.47;;;;;;;;;;6201840;23;20670;-91
2021/06/08 11:07:04;;;;;;;6.35;3.75;;;;;;;;;;6210557;23;20518;-91
2021/06/08 11:10:24;;;;;;;7.35;4.60;;;;;;;;;;6201160;23;20171;-90
2021/06/08 11:13:42;;;;;;;6.65;4.03;;;;;;;;;;6200536;23;20164;-91
2021/06/08 11:17:00;;;;;;;9.73;4.35;;;;;;;;;;6209816;22;20192;-90
2021/06/08 11:20:07;;;;;;;13.10;3.95;;;;;;;;;;6207666;23;20203;-90
2021/06/08 11:23:12;;;;;;;10.27;4.78;;;;;;;;;;6203781;23;20207;-91
2021/06/08 13:20:25;;;;;;;5.55;3.17;;;;;;;;;;6150292;23;20211;-92
2021/06/08 13:23:31;;;;;;;8.27;3.10;;;;;;;;;;6196982;23;20198;-92
2021/06/08 13:26:36;;;;;;;6.80;3.40;;;;;;;;;;6199831;23;20155;-91
2021/06/08 13:29:40;;;;;;;7.20;3.50;;;;;;;;;;6200439;23;20190;-92
2021/06/08 13:32:45;;;;;;;18.17;4.03;;;;;;;;;;6182068;23;20194;-93
2021/06/08 13:35:53;;;;;;;7.03;4.03;;;;;;;;;;6200583;23;20170;-93
2021/06/08 13:39:08;;;;;;;3.45;2.75;;;;;;;;;;6181595;23;20224;-93
2021/06/08 13:42:14;;;;;;;4.78;3.22;;;;;;;;;;6198598;23;20167;-93
2021/06/08 13:45:28;;;;;;;4.90;3.25;;;;;;;;;;6199080;23;20179;-93
2021/06/08 13:48:34;;;;;;;4.38;3.08;;;;;;;;;;6200633;23;20166;-94
2021/06/08 13:51:57;;;;;;;8.50;3.20;;;;;;;;;;6200165;23;20184;-92
2021/06/08 13:55:11;;;;;;;5.93;2.92;;;;;;;;;;6186617;23;20155;-93
2021/06/08 14:01:50;;;;;;;4.82;2.97;;;;;;;;;;6202699;23;20178;-92
2021/06/08 14:04:54;;;;;;;6.38;3.67;;;;;;;;;;6202078;23;20164;-92
2021/06/08 14:08:00;;;;;;;4.28;3.35;;;;;;;;;;6184334;23;20191;-93
2021/06/08 14:11:07;;;;;;;7.45;4.05;;;;;;;;;;6201709;23;20164;-91
2021/06/08 14:14:17;;;;;;;14.27;3.65;;;;;;;;;;6202980;23;20188;-92
2021/06/08 14:17:23;;;;;;;5.93;3.88;;;;;;;;;;6204492;23;20168;-92
2021/06/08 14:20:28;;;;;;;5.20;3.58;;;;;;;;;;6200172;23;20208;-93
2021/06/08 14:23:33;;;;;;;6.40;3.28;;;;;;;;;;6185196;23;20196;-92
2021/06/08 14:26:42;;;;;;;4.72;3.28;;;;;;;;;;6184431;23;20240;-91
2021/06/08 14:29:47;;;;;;;6.80;4.18;;;;;;;;;;6200624;23;20188;-93
2021/06/08 14:32:52;;;;;;;7.22;3.20;;;;;;;;;;6203488;23;20199;-93
2021/06/08 14:35:57;;;;;;;5.47;3.50;;;;;;;;;;6203406;23;20264;-92
2021/06/08 14:39:02;;;;;;;5.45;3.55;;;;;;;;;;6203619;23;20263;-93
2021/06/08 14:42:09;;;;;;;7.45;3.42;;;;;;;;;;6202154;23;20528;-94
2021/06/08 14:45:14;;;;;;;15.18;3.92;;;;;;;;;;6201310;23;20171;-93
2021/06/08 14:48:18;;;;;;;5.68;3.40;;;;;;;;;;6203145;23;20156;-93
2021/06/08 14:51:23;;;;;;;6.25;3.58;;;;;;;;;;6200461;23;20184;-94
2021/06/08 14:54:29;;;;;;;6.55;4.20;;;;;;;;;;6202016;23;20168;-92
2021/06/08 14:57:36;;;;;;;8.02;4.32;;;;;;;;;;6184621;23;20155;-92
2021/06/08 15:00:41;;;;;;;8.88;4.35;;;;;;;;;;6185450;23;20216;-93
2021/06/08 15:03:46;;;;;;;9.73;5.05;;;;;;;;;;6204292;23;20218;-92
2021/06/08 15:06:55;;;;;;;9.82;5.53;;;;;;;;;;6203363;23;20174;-93
2021/06/08 15:10:00;;;;;;;8.52;5.28;;;;;;;;;;6203289;23;20203;-92
2021/06/08 15:13:07;;;;;;;7.63;5.05;;;;;;;;;;6186079;23;20204;-93
2021/06/08 15:16:11;;;;;;;9.10;5.22;;;;;;;;;;6186040;23;20192;-93
2021/06/08 15:19:17;;;;;;;9.05;5.50;;;;;;;;;;6186994;23;20228;-93
2021/06/08 15:22:22;;;;;;;9.60;5.13;;;;;;;;;;6202711;23;20195;-92
2021/06/08 15:25:30;;;;;;;9.18;5.70;;;;;;;;;;6204440;23;20179;-91
2021/06/08 15:28:35;;;;;;;8.43;5.40;;;;;;;;;;6202720;23;20194;-93
2021/06/08 15:31:42;;;;;;;9.63;4.82;;;;;;;;;;6206311;23;20221;-92
2021/06/08 15:34:47;;;;;;;6.47;4.82;;;;;;;;;;6205771;23;20179;-94
2021/06/08 15:37:52;;;;;;;6.90;4.88;;;;;;;;;;6185510;23;20164;-93
2021/06/08 15:40:57;;;;;;;7.55;5.03;;;;;;;;;;6203190;23;20171;-93
2021/06/08 15:44:18;;;;;;;8.85;4.63;;;;;;;;;;6203147;23;20248;-92
2021/06/08 15:47:24;;;;;;;8.35;4.40;;;;;;;;;;6186420;23;20179;-91
2021/06/08 15:50:29;;;;;;;9.10;4.80;;;;;;;;;;6204132;23;20175;-92
2021/06/08 15:53:34;;;;;;;6.53;4.68;;;;;;;;;;6205772;23;20168;-94
2021/06/08 16:00:01;;;;;;;9.60;4.28;;;;;;;;;;6188940;23;20168;-92
2021/06/08 17:16:28;;;;;;;10.20;5.97;;;;;;;;;;6158689;23;20248;-90
2021/06/08 17:19:32;;;;;;;11.23;6.32;;;;;;;;;;6203627;23;20216;-94
2021/06/08 17:22:37;;;;;;;10.05;6.45;;;;;;;;;;6204881;23;20642;-94
2021/06/08 17:25:42;;;;;;;11.15;7.13;;;;;;;;;;6202618;23;20188;-92
2021/06/08 17:28:47;;;;;;;14.25;7.78;;;;;;;;;;6202999;23;20244;-93
2021/06/08 17:32:07;;;;;;;14.40;7.78;;;;;;;;;;6200603;23;20171;-91
2021/06/08 17:35:14;;;;;;;10.48;6.68;;;;;;;;;;6184282;23;20171;-93
2021/06/08 17:38:19;;;;;;;12.65;6.47;;;;;;;;;;6202176;23;20171;-94
2021/06/08 17:41:24;;;;;;;11.07;6.55;;;;;;;;;;6184260;23;20159;-94
2021/06/08 17:44:29;;;;;;;8.35;6.15;;;;;;;;;;6184146;23;20195;-93
2021/06/08 17:47:34;;;;;;;11.00;7.00;;;;;;;;;;6201463;23;20191;-93
2021/06/08 17:50:41;;;;;;;9.82;6.22;;;;;;;;;;6202505;23;20211;-92
2021/06/08 17:53:46;;;;;;;9.35;6.45;;;;;;;;;;6204013;23;20176;-92
2021/06/08 17:56:51;;;;;;;9.68;5.80;;;;;;;;;;6205295;23;20268;-93
2021/06/08 17:59:55;;;;;;;11.80;6.43;;;;;;;;;;6202939;23;20200;-91
2021/06/08 18:03:00;;;;;;;11.55;6.18;;;;;;;;;;6203091;23;20222;-90
2021/06/08 18:06:08;;;;;;;11.35;6.20;;;;;;;;;;6202145;23;20175;-91
2021/06/08 18:09:13;;;;;;;10.00;5.53;;;;;;;;;;6203892;23;20171;-93
2021/06/08 18:12:18;;;;;;;10.15;6.32;;;;;;;;;;6204695;23;20168;-93
2021/06/08 18:15:22;;;;;;;10.82;5.63;;;;;;;;;;6186320;23;20179;-93
2021/06/08 18:18:36;;;;;;;12.38;6.15;;;;;;;;;;6173308;23;20172;-92
2021/06/08 18:21:43;;;;;;;10.25;6.90;;;;;;;;;;6173275;23;20169;-93
2021/06/08 18:24:48;;;;;;;9.77;6.50;;;;;;;;;;6172768;23;20687;-92
2021/06/08 18:27:53;;;;;;;9.07;6.50;;;;;;;;;;6174485;23;20193;-93
2021/06/08 18:30:59;;;;;;;11.77;6.72;;;;;;;;;;6159553;23;20241;-93
2021/06/08 18:34:03;;;;;;;13.98;6.10;;;;;;;;;;6157921;23;20542;-93
2021/06/08 18:37:10;;;;;;;12.38;6.53;;;;;;;;;;6157871;23;20217;-93
2021/06/08 18:40:15;;;;;;;10.57;5.90;;;;;;;;;;6158575;23;20212;-93
2021/06/08 18:43:22;;;;;;;9.93;6.18;;;;;;;;;;6177636;23;20231;-93
2021/06/08 18:46:27;;;;;;;11.60;6.90;;;;;;;;;;6178818;23;20188;-92
2021/06/08 18:49:33;;;;;;;11.95;7.07;;;;;;;;;;6161636;23;20171;-94
2021/06/08 18:52:41;;;;;;;11.32;6.35;;;;;;;;;;6178319;23;20179;-93
2021/06/08 18:55:46;;;;;;;10.00;6.60;;;;;;;;;;6160389;23;20164;-93
2021/06/08 18:58:55;;;;;;;9.45;6.45;;;;;;;;;;6156807;23;20196;-93
2021/06/08 19:02:00;;;;;;;11.75;6.88;;;;;;;;;;6156919;23;20196;-93
2021/06/08 19:05:06;;;;;;;14.55;9.00;;;;;;;;;;6158584;23;20220;-93
2021/06/08 19:08:12;;;;;;;12.63;7.78;;;;;;;;;;6175636;23;20173;-93
2021/06/08 19:11:17;;;;;;;15.30;7.45;;;;;;;;;;6158922;23;20180;-89
2021/06/08 19:14:27;;;;;;;11.98;6.72;;;;;;;;;;6157939;23;20168;-91
2021/06/08 19:17:33;;;;;;;11.68;6.57;;;;;;;;;;6199328;23;20196;-92
2021/06/08 19:20:38;;;;;;;10.65;6.95;;;;;;;;;;6203870;23;20217;-92
2021/06/08 19:23:45;;;;;;;12.77;6.53;;;;;;;;;;6205458;23;20195;-92
2021/06/08 19:26:50;;;;;;;16.25;6.80;;;;;;;;;;6204949;23;20183;-92
2021/06/08 19:29:57;;;;;;;10.57;6.43;;;;;;;;;;6205547;23;20208;-91
2021/06/08 19:33:02;;;;;;;11.55;6.82;;;;;;;;;;6221207;23;20192;-91
2021/06/08 19:36:10;;;;;;;10.20;7.10;;;;;;;;;;6205863;23;20168;-90
2021/06/08 19:39:16;;;;;;;13.57;7.30;;;;;;;;;;6207788;23;20164;-92
2021/06/08 19:42:21;;;;;;;14.07;8.65;;;;;;;;;;6206182;23;20155;-92
2021/06/08 19:45:31;;;;;;;11.23;7.40;;;;;;;;;;6224164;23;20192;-91
2021/06/08 19:48:36;;;;;;;10.07;7.00;;;;;;;;;;6204956;23;20219;-93
2021/06/08 19:51:45;;;;;;;9.73;7.00;;;;;;;;;;6203905;23;20188;-92
2021/06/08 19:54:54;;;;;;;9.73;7.05;;;;;;;;;;6205140;23;20171;-92
2021/06/08 19:57:59;;;;;;;12.15;6.93;;;;;;;;;;6224464;22;20159;-92
2021/06/08 20:01:05;;;;;;;11.52;7.38;;;;;;;;;;6186475;23;20167;-91
2021/06/08 20:04:10;;;;;;;12.45;7.00;;;;;;;;;;6204557;23;20208;-91
2021/06/08 20:07:15;;;;;;;13.68;7.43;;;;;;;;;;6203489;23;20188;-91
2021/06/08 20:10:22;;;;;;;10.40;7.10;;;;;;;;;;6221543;23;20167;-90
2021/06/08 20:13:27;;;;;;;13.35;7.15;;;;;;;;;;6204461;23;20175;-92
2021/06/08 20:16:34;;;;;;;14.02;7.43;;;;;;;;;;6204448;23;20206;-91
2021/06/08 20:19:39;;;;;;;13.98;7.88;;;;;;;;;;6203766;23;20235;-90
2021/06/08 20:22:44;;;;;;;14.70;8.07;;;;;;;;;;6201615;23;20175;-89
2021/06/08 20:25:51;;;;;;;12.65;8.13;;;;;;;;;;6203468;23;20229;-90
2021/06/08 20:28:56;;;;;;;13.57;8.52;;;;;;;;;;6202911;23;20172;-91
2021/06/08 20:32:02;;;;;;;14.32;8.57;;;;;;;;;;6221611;22;20164;-90
2021/06/08 20:35:08;;;;;;;12.57;8.10;;;;;;;;;;6200961;23;20167;-90
2021/06/08 20:38:14;;;;;;;11.73;7.75;;;;;;;;;;6201935;23;20213;-89
2021/06/08 20:41:20;;;;;;;14.73;8.52;;;;;;;;;;6202400;23;20242;-90
2021/06/08 20:44:27;;;;;;;13.07;8.45;;;;;;;;;;6220940;23;20191;-91
2021/06/08 20:47:32;;;;;;;12.90;8.13;;;;;;;;;;6201677;23;20206;-90
2021/06/08 20:50:37;;;;;;;13.35;9.07;;;;;;;;;;6200713;23;20179;-91
2021/06/08 20:53:44;;;;;;;12.55;8.60;;;;;;;;;;6199836;23;20164;-91
2021/06/08 20:56:51;;;;;;;12.65;8.65;;;;;;;;;;6201846;23;20195;-91
2021/06/08 20:59:56;;;;;;;10.90;8.15;;;;;;;;;;6220321;23;20188;-91
2021/06/08 21:03:01;;;;;;;19.02;9.50;;;;;;;;;;6202592;23;20187;-92
2021/06/08 21:06:05;;;;;;;13.63;8.98;;;;;;;;;;6201773;23;20220;-90
2021/06/08 21:09:10;;;;;;;11.73;8.32;;;;;;;;;;6200694;23;20211;-91
2021/06/08 21:12:16;;;;;;;15.25;9.40;;;;;;;;;;6199878;23;20184;-90
2021/06/08 21:15:21;;;;;;;12.13;8.82;;;;;;;;;;6201827;23;20184;-91
2021/06/08 21:18:26;;;;;;;11.80;8.07;;;;;;;;;;6219718;23;20172;-90
2021/06/08 21:21:31;;;;;;;14.45;8.32;;;;;;;;;;6204832;23;20168;-92
2021/06/08 21:24:36;;;;;;;11.88;8.98;;;;;;;;;;6204831;23;20219;-91
2021/06/08 21:27:53;;;;;;;14.77;9.20;;;;;;;;;;6204978;23;20187;-91
2021/06/08 21:30:58;;;;;;;12.52;8.88;;;;;;;;;;6204739;23;20172;-90
2021/06/08 21:34:04;;;;;;;15.02;8.48;;;;;;;;;;6209243;23;20167;-90
2021/06/08 21:37:09;;;;;;;17.42;10.45;;;;;;;;;;6204694;23;20187;-90
2021/06/08 21:40:14;;;;;;;18.02;9.95;;;;;;;;;;6203040;23;20176;-91
2021/06/08 21:43:20;;;;;;;18.10;9.90;;;;;;;;;;6202152;23;20163;-91
2021/06/08 21:46:26;;;;;;;16.55;10.15;;;;;;;;;;6203542;23;20231;-90
2021/06/08 21:49:31;;;;;;;14.48;10.07;;;;;;;;;;6186070;23;20237;-90
2021/06/08 21:52:36;;;;;;;17.60;10.02;;;;;;;;;;6205509;23;20683;-90
2021/06/08 21:55:41;;;;;;;16.70;9.63;;;;;;;;;;6203120;23;20179;-90
2021/06/08 21:58:48;;;;;;;17.55;10.18;;;;;;;;;;6201792;23;20222;-88
2021/06/08 22:01:58;;;;;;;15.10;9.55;;;;;;;;;;6197463;23;20171;-90
2021/06/08 22:05:03;;;;;;;16.60;10.25;;;;;;;;;;6206235;23;20203;-91
2021/06/08 22:08:09;;;;;;;16.85;10.25;;;;;;;;;;6203063;23;20175;-91
2021/06/08 22:11:14;;;;;;;15.38;9.80;;;;;;;;;;6200057;23;20288;-91
2021/06/08 22:14:20;;;;;;;22.95;9.70;;;;;;;;;;6199585;23;20187;-90
2021/06/08 22:17:25;;;;;;;16.63;10.07;;;;;;;;;;6197932;23;20212;-88
2021/06/08 22:20:30;;;;;;;17.70;9.38;;;;;;;;;;6197338;23;20164;-89
2021/06/08 22:23:35;;;;;;;20.52;9.80;;;;;;;;;;6215915;23;20195;-90
2021/06/08 22:26:40;;;;;;;18.58;9.95;;;;;;;;;;6204664;23;20163;-90
2021/06/08 22:29:53;;;;;;;19.30;10.40;;;;;;;;;;6205538;23;20282;-90
2021/06/08 22:33:07;;;;;;;15.50;9.50;;;;;;;;;;6202397;23;20172;-90
2021/06/08 22:39:35;;;;;;;15.90;10.05;;;;;;;;;;6201936;23;20172;-91
2021/06/08 22:42:40;;;;;;;15.02;9.57;;;;;;;;;;6197997;23;20237;-91
2021/06/08 22:45:46;;;;;;;15.00;10.32;;;;;;;;;;6200740;23;20219;-90
2021/06/08 22:48:51;;;;;;;18.00;10.35;;;;;;;;;;6202986;23;20228;-90
2021/06/08 22:51:57;;;;;;;16.88;10.93;;;;;;;;;;6200868;23;20168;-91
2021/06/08 22:55:02;;;;;;;18.58;11.00;;;;;;;;;;6199220;23;20180;-91
2021/06/08 22:58:07;;;;;;;24.02;10.80;;;;;;;;;;6201230;23;20183;-91
2021/06/08 23:01:14;;;;;;;22.58;11.60;;;;;;;;;;6200787;23;20164;-90
2021/06/08 23:04:18;;;;;;;20.20;11.10;;;;;;;;;;6197668;23;20204;-92
2021/06/08 23:07:23;;;;;;;22.08;11.20;;;;;;;;;;6199269;23;20227;-91
2021/06/08 23:10:28;;;;;;;16.67;10.15;;;;;;;;;;6198748;23;20191;-91
2021/06/08 23:13:33;;;;;;;16.23;10.75;;;;;;;;;;6198598;23;20231;-91
2021/06/08 23:16:39;;;;;;;20.77;10.88;;;;;;;;;;6197890;23;20219;-90
2021/06/08 23:19:44;;;;;;;17.30;11.18;;;;;;;;;;6197354;23;20179;-90
2021/06/08 23:22:49;;;;;;;18.13;10.95;;;;;;;;;;6198034;23;20260;-91
2021/06/08 23:25:53;;;;;;;19.00;10.68;;;;;;;;;;6196791;23;20216;-92
2021/06/08 23:28:58;;;;;;;18.40;10.98;;;;;;;;;;6197601;23;20163;-91
2021/06/08 23:32:04;;;;;;;17.17;10.63;;;;;;;;;;6197296;23;20219;-91
2021/06/08 23:35:09;;;;;;;16.90;10.20;;;;;;;;;;6198552;23;20615;-92
2021/06/08 23:38:14;;;;;;;18.33;11.07;;;;;;;;;;6198517;23;20207;-90
2021/06/08 23:41:18;;;;;;;16.80;11.18;;;;;;;;;;6198716;23;20639;-90
2021/06/08 23:44:23;;;;;;;16.33;11.10;;;;;;;;;;6197598;23;20695;-91
2021/06/08 23:47:29;;;;;;;22.23;11.63;;;;;;;;;;6199046;23;20172;-90
2021/06/08 23:50:33;;;;;;;18.40;11.82;;;;;;;;;;6199038;23;20263;-90
2021/06/08 23:53:38;;;;;;;19.88;12.30;;;;;;;;;;6197627;23;20402;-92
2021/06/08 23:56:42;;;;;;;17.48;12.10;;;;;;;;;;6197268;23;20171;-91
2021/06/08 23:59:47;;;;;;;21.08;12.40;;;;;;;;;;6196711;23;20200;-91
